createdAt,value
2023-04-10T00:08:08.571Z,5.01
2023-04-10T00:18:10.559Z,4.42
2023-04-10T00:28:12.559Z,4.70
2023-04-10T00:38:14.579Z,4.40
2023-04-10T00:48:16.519Z,4.26
2023-04-10T00:58:18.689Z,4.04
2023-04-10T01:08:52.372Z,3.87
2023-04-10T01:19:01.229Z,4.03
2023-04-10T01:29:09.793Z,4.39
2023-04-10T01:39:12.702Z,4.05
2023-04-10T01:49:15.635Z,3.89
2023-04-10T01:59:19.880Z,3.67
2023-04-10T02:09:59.039Z,3.68
2023-04-10T02:20:04.807Z,3.01
2023-04-10T02:30:09.301Z,3.22
2023-04-10T02:40:11.501Z,2.73
2023-04-10T02:50:13.537Z,2.74
2023-04-10T03:00:16.667Z,2.52
2023-04-10T03:10:18.550Z,2.73
2023-04-10T03:20:20.579Z,2.53
2023-04-10T03:30:22.541Z,2.37
2023-04-10T03:40:26.453Z,2.50
2023-04-10T03:50:30.765Z,2.35
2023-04-10T04:00:34.015Z,2.29
2023-04-10T04:10:36.997Z,2.31
2023-04-10T04:20:38.853Z,2.40
2023-04-10T04:30:41.107Z,2.78
2023-04-10T04:40:43.308Z,3.09
2023-04-10T04:50:46.223Z,3.49
2023-04-10T05:00:48.113Z,3.86
2023-04-10T05:10:50.335Z,4.47
2023-04-10T05:20:52.274Z,4.80
2023-04-10T05:30:54.250Z,5.59
2023-04-10T05:40:57.152Z,6.05
2023-04-10T05:51:01.137Z,7.12
2023-04-10T06:01:03.038Z,7.95
2023-04-10T06:11:05.179Z,9.27
2023-04-10T06:21:07.626Z,9.57
2023-04-10T06:31:09.586Z,11.00
2023-04-10T06:41:17.229Z,10.77
2023-04-10T06:51:19.149Z,11.02
2023-04-10T07:01:30.038Z,12.50
2023-04-10T07:11:33.033Z,12.59
2023-04-10T07:21:34.992Z,13.05
2023-04-10T07:31:40.162Z,14.48
2023-04-10T07:41:42.266Z,13.60
2023-04-10T07:51:44.198Z,15.22
2023-04-10T08:01:48.212Z,16.30
2023-04-10T08:11:50.266Z,15.46
2023-04-10T08:21:52.320Z,15.55
2023-04-10T08:31:56.746Z,15.23
2023-04-10T08:41:58.812Z,15.02
2023-04-10T08:52:04.463Z,14.85
2023-04-10T09:02:06.817Z,15.62
2023-04-10T09:12:13.437Z,15.70
2023-04-10T09:22:17.513Z,15.12
2023-04-10T09:32:49.276Z,16.14
2023-04-10T09:43:00.407Z,15.64
2023-04-10T09:53:02.500Z,15.39
2023-04-10T10:03:08.434Z,15.10
2023-04-10T10:13:18.410Z,15.46
2023-04-10T10:23:22.732Z,15.71
2023-04-10T10:33:26.488Z,16.08
2023-04-10T10:43:58.221Z,15.57
2023-04-10T10:54:01.350Z,15.26
2023-04-10T11:05:01.946Z,16.28
2023-04-10T11:15:13.329Z,15.97
2023-04-10T11:25:15.413Z,15.65
2023-04-10T11:35:20.231Z,16.62
2023-04-10T11:45:27.097Z,15.69
2023-04-10T11:55:39.300Z,15.84
2023-04-10T12:05:51.632Z,16.23
2023-04-10T12:15:54.822Z,15.10
2023-04-10T12:26:10.941Z,15.81
2023-04-10T12:36:30.469Z,15.89
2023-04-10T12:46:32.609Z,16.43
2023-04-10T12:56:44.501Z,16.29
2023-04-10T13:06:53.227Z,16.48
2023-04-10T13:16:55.202Z,16.89
2023-04-10T13:26:59.173Z,16.55
2023-04-10T13:37:01.866Z,16.40
2023-04-10T13:47:03.998Z,15.97
2023-04-10T13:57:07.045Z,15.89
2023-04-10T14:07:12.531Z,16.30
2023-04-10T14:17:15.553Z,16.82
2023-04-10T14:27:19.560Z,15.91
2023-04-10T14:37:22.660Z,15.93
2023-04-10T14:47:26.721Z,15.39
2023-04-10T14:57:29.932Z,15.24
2023-04-10T15:07:32.000Z,15.10
2023-04-10T15:17:34.015Z,15.09
2023-04-10T15:27:36.258Z,14.93
2023-04-10T15:37:38.315Z,14.57
2023-04-10T15:47:40.489Z,14.43
2023-04-10T15:57:43.536Z,14.23
2023-04-10T16:07:46.558Z,14.04
2023-04-10T16:17:48.650Z,13.78
2023-04-10T16:27:50.968Z,13.79
2023-04-10T16:37:54.691Z,13.31
2023-04-10T16:47:57.814Z,12.77
2023-04-10T16:58:04.207Z,12.72
2023-04-10T17:08:06.721Z,12.82
2023-04-10T17:18:08.867Z,12.75
2023-04-10T17:28:11.095Z,12.50
2023-04-10T17:38:13.612Z,12.20
2023-04-10T17:48:19.161Z,11.50
2023-04-10T17:58:21.679Z,11.00
2023-04-10T18:08:23.744Z,10.38
2023-04-10T18:18:25.935Z,10.11
2023-04-10T18:28:38.116Z,9.63
2023-04-10T18:38:44.136Z,9.28
2023-04-10T18:48:58.428Z,9.09
2023-04-10T18:59:06.840Z,8.92
2023-04-10T19:09:18.107Z,8.43
2023-04-10T19:19:21.560Z,8.11
2023-04-10T19:29:24.757Z,8.05
2023-04-10T19:39:29.399Z,8.15
2023-04-10T19:49:35.176Z,7.60
2023-04-10T19:59:37.959Z,7.44
2023-04-10T20:09:46.021Z,7.32
2023-04-10T20:19:47.964Z,6.87
2023-04-10T20:29:50.781Z,6.95
2023-04-10T20:39:52.922Z,6.83
2023-04-10T20:49:55.131Z,6.56
2023-04-10T20:59:57.136Z,6.58
2023-04-10T21:09:59.316Z,6.57
2023-04-10T21:20:05.824Z,6.19
2023-04-10T21:30:09.261Z,6.12
2023-04-10T21:40:11.412Z,6.14
2023-04-10T21:50:14.411Z,5.88
2023-04-10T22:00:17.242Z,5.71
2023-04-10T22:10:20.271Z,5.74
2023-04-10T22:20:22.211Z,5.61
2023-04-10T22:30:26.808Z,5.29
2023-04-10T22:40:28.775Z,5.30
2023-04-10T22:50:33.288Z,4.96
2023-04-10T23:00:35.188Z,4.93
2023-04-10T23:10:37.161Z,4.98
2023-04-10T23:20:39.214Z,4.73
2023-04-10T23:30:43.081Z,4.66
2023-04-10T23:40:45.252Z,4.70
2023-04-10T23:50:47.113Z,4.50
